Time;durP1;ratioP1;P1;durP2;ratioP2;P2;SDS_P1;SDS_P2;PMS_P1;PMS_P2;Temp;Humidity;BMP_temperature;BMP_pressure;BME280_temperature;BME280_humidity;BME280_pressure;Samples;Min_cycle;Max_cycle;Signal;HPM_P1;HPM_P2
2022/10/06 00:00:46;;;;;;;6.93;2.77;;;;;;;12.97;100.00;97015.47;5010648;28;20504;-80
2022/10/06 00:03:12;;;;;;;5.77;2.60;;;;;;;13.00;100.00;97024.06;5015775;28;20087;-80
2022/10/06 00:05:49;;;;;;;4.50;2.30;;;;;;;13.05;100.00;97021.81;5020977;28;20086;-80
2022/10/06 00:08:15;;;;;;;4.10;2.13;;;;;;;13.05;100.00;97024.44;4999517;28;20120;-81
2022/10/06 00:10:41;;;;;;;4.33;2.30;;;;;;;13.06;100.00;97029.56;4998858;28;20116;-81
2022/10/06 00:13:07;;;;;;;4.67;2.60;;;;;;;12.99;100.00;97036.44;5043105;28;20072;-81
2022/10/06 00:15:33;;;;;;;4.17;2.20;;;;;;;12.93;100.00;97035.25;5029970;28;20049;-80
2022/10/06 00:18:00;;;;;;;3.33;1.87;;;;;;;12.91;100.00;97039.88;5015268;28;20040;-80
2022/10/06 00:20:26;;;;;;;4.70;2.50;;;;;;;12.87;100.00;97035.84;5002918;28;20120;-81
2022/10/06 00:22:52;;;;;;;3.57;1.87;;;;;;;12.86;100.00;97041.31;5006582;28;20048;-81
2022/10/06 00:25:21;;;;;;;5.67;2.33;;;;;;;12.80;100.00;97045.38;5015386;28;20025;-80
2022/10/06 00:27:48;;;;;;;7.83;2.50;;;;;;;12.77;100.00;97040.41;5015497;28;20048;-81
2022/10/06 00:30:18;;;;;;;4.77;2.30;;;;;;;12.78;100.00;97049.19;5002230;28;20033;-81
2022/10/06 00:32:56;;;;;;;8.37;2.43;;;;;;;12.80;100.00;97049.84;5018773;28;20414;-81
2022/10/06 00:35:26;;;;;;;7.67;2.50;;;;;;;12.84;100.00;97052.00;5000374;28;20466;-81
2022/10/06 00:37:51;;;;;;;6.30;2.40;;;;;;;12.82;100.00;97051.34;5022875;28;20580;-80
2022/10/06 00:40:17;;;;;;;6.83;2.33;;;;;;;12.79;100.00;97054.28;5002516;28;20063;-80
2022/10/06 00:43:05;;;;;;;4.77;2.53;;;;;;;12.82;100.00;97053.97;5012014;28;20049;-80
2022/10/06 00:45:38;;;;;;;5.27;2.10;;;;;;;12.72;100.00;97051.44;5001467;28;20510;-81
2022/10/06 00:48:19;;;;;;;4.43;2.50;;;;;;;12.70;100.00;97055.19;5012648;28;20388;-80
2022/10/06 00:50:46;;;;;;;7.40;2.23;;;;;;;12.66;100.00;97052.03;5014494;28;20482;-81
2022/10/06 00:53:13;;;;;;;4.70;2.70;;;;;;;12.67;100.00;97055.50;5007890;28;20084;-81
2022/10/06 00:55:39;;;;;;;5.97;2.60;;;;;;;12.66;100.00;97053.84;5020990;28;20092;-81
2022/10/06 00:58:06;;;;;;;4.13;2.60;;;;;;;12.63;100.00;97054.16;5033639;28;20093;-81
2022/10/06 01:00:33;;;;;;;6.20;2.70;;;;;;;12.60;100.00;97067.63;5020408;28;20043;-80
2022/10/06 01:03:16;;;;;;;7.63;2.90;;;;;;;12.56;100.00;97059.19;5001870;28;20041;-79
2022/10/06 01:05:50;;;;;;;6.93;2.33;;;;;;;12.54;100.00;97060.31;5022338;28;20037;-80
2022/10/06 01:08:16;;;;;;;4.43;2.27;;;;;;;12.49;100.00;97058.97;5018633;28;20082;-81
2022/10/06 01:10:42;;;;;;;5.83;2.67;;;;;;;12.48;100.00;97067.06;5004395;28;20030;-80
2022/10/06 01:13:12;;;;;;;6.50;2.63;;;;;;;12.49;100.00;97058.16;5024614;28;20045;-81
2022/10/06 01:15:43;;;;;;;5.57;3.20;;;;;;;12.50;100.00;97065.91;5013946;28;20037;-80
2022/10/06 01:18:13;;;;;;;8.37;2.50;;;;;;;12.45;100.00;97067.34;5003713;28;20072;-80
2022/10/06 01:21:18;;;;;;;7.07;2.60;;;;;;;12.46;100.00;97069.00;5021732;28;20030;-81
2022/10/06 01:23:44;;;;;;;6.13;2.37;;;;;;;12.42;100.00;97065.00;5017221;28;20061;-82
2022/10/06 01:26:12;;;;;;;5.67;2.33;;;;;;;12.47;100.00;97070.66;5033644;28;20041;-80
2022/10/06 01:28:47;;;;;;;4.23;1.73;;;;;;;12.46;100.00;97066.38;5013981;28;20038;-81
2022/10/06 01:31:13;;;;;;;5.80;2.20;;;;;;;12.48;100.00;97072.31;5032467;28;20038;-81
2022/10/06 01:33:40;;;;;;;4.80;2.00;;;;;;;12.49;100.00;97074.81;5021307;28;20029;-80
2022/10/06 01:36:16;;;;;;;3.77;2.07;;;;;;;12.53;100.00;97074.50;5007613;28;20093;-81
2022/10/06 01:38:42;;;;;;;6.90;2.60;;;;;;;12.50;100.00;97076.44;5032088;28;20041;-80
2022/10/06 01:41:08;;;;;;;6.87;2.30;;;;;;;12.56;100.00;97077.66;5005515;28;20370;-80
2022/10/06 01:43:34;;;;;;;3.93;2.10;;;;;;;12.54;100.00;97073.50;5016913;28;20034;-80
2022/10/06 01:46:04;;;;;;;3.63;2.20;;;;;;;12.56;100.00;97072.41;5015183;28;20090;-80
2022/10/06 01:48:30;;;;;;;8.37;2.33;;;;;;;12.59;100.00;97072.09;5018563;28;20044;-80
2022/10/06 01:50:57;;;;;;;3.47;1.87;;;;;;;12.53;100.00;97080.59;5013769;28;20041;-81
2022/10/06 01:53:23;;;;;;;6.50;2.30;;;;;;;12.54;100.00;97073.50;5023353;28;20033;-81
2022/10/06 01:55:48;;;;;;;3.20;1.90;;;;;;;12.60;100.00;97081.66;5007104;28;20052;-80
2022/10/06 01:58:19;;;;;;;4.50;2.17;;;;;;;12.64;100.00;97076.91;5006709;28;20079;-81
2022/10/06 02:00:45;;;;;;;6.27;2.23;;;;;;;12.63;100.00;97072.63;5009047;28;20341;-80
2022/10/06 02:03:11;;;;;;;4.00;2.23;;;;;;;12.60;100.00;97076.38;5006813;28;20053;-80
2022/10/06 02:05:37;;;;;;;5.97;2.57;;;;;;;12.66;100.00;97080.22;5003416;28;20107;-80
2022/10/06 02:08:03;;;;;;;3.83;1.87;;;;;;;12.65;100.00;97078.59;5030203;28;20433;-79
2022/10/06 02:10:32;;;;;;;4.27;1.63;;;;;;;12.61;100.00;97083.34;5009064;28;20478;-80
2022/10/06 02:12:58;;;;;;;4.03;2.00;;;;;;;12.62;100.00;97081.53;4998753;28;20062;-81
2022/10/06 02:15:27;;;;;;;4.87;1.83;;;;;;;12.62;100.00;97089.44;5011793;28;20100;-81
2022/10/06 02:17:53;;;;;;;4.20;2.03;;;;;;;12.61;100.00;97085.97;4995607;28;20113;-80
2022/10/06 02:20:40;;;;;;;17.27;2.37;;;;;;;12.60;100.00;97091.38;5014307;28;20076;-81
2022/10/06 02:23:07;;;;;;;4.30;2.00;;;;;;;12.66;100.00;97096.91;5004769;28;20049;-80
2022/10/06 02:25:33;;;;;;;4.60;2.10;;;;;;;12.60;100.00;97101.94;5018313;28;20059;-80
2022/10/06 02:27:59;;;;;;;4.23;2.07;;;;;;;12.63;100.00;97101.66;5010673;28;20037;-80
2022/10/06 02:30:25;;;;;;;6.43;1.93;;;;;;;12.66;100.00;97104.81;5011593;28;20042;-80
2022/10/06 02:32:58;;;;;;;3.93;1.83;;;;;;;12.57;100.00;97104.88;4996360;28;20037;-80
2022/10/06 02:35:23;;;;;;;6.45;1.63;;;;;;;12.54;100.00;97110.44;5039372;28;20095;-80
2022/10/06 02:37:50;;;;;;;4.80;2.27;;;;;;;12.48;100.00;97118.00;5014732;28;20037;-80
2022/10/06 02:40:17;;;;;;;5.67;2.10;;;;;;;12.47;100.00;97119.00;5031638;28;20403;-80
2022/10/06 02:42:44;;;;;;;7.63;2.13;;;;;;;12.42;100.00;97118.59;5031952;28;20116;-80
2022/10/06 02:45:11;;;;;;;6.13;2.93;;;;;;;12.35;100.00;97117.53;5017532;28;20077;-80
2022/10/06 02:47:38;;;;;;;5.40;1.93;;;;;;;12.30;100.00;97122.41;5025991;28;20040;-80
2022/10/06 02:50:06;;;;;;;3.27;1.90;;;;;;;12.28;100.00;97134.94;5033366;28;20037;-80
2022/10/06 02:52:35;;;;;;;4.17;1.93;;;;;;;12.26;100.00;97137.69;5010727;28;20033;-81
2022/10/06 02:55:05;;;;;;;8.90;2.30;;;;;;;12.17;100.00;97140.38;5017744;28;20035;-80
2022/10/06 02:57:31;;;;;;;5.70;1.93;;;;;;;12.20;100.00;97137.47;4995311;28;20042;-80
2022/10/06 02:59:58;;;;;;;3.77;2.20;;;;;;;12.22;100.00;97146.88;4984960;28;20034;-80
2022/10/06 03:02:23;;;;;;;5.83;2.27;;;;;;;12.18;100.00;97150.81;5006021;28;20033;-80
2022/10/06 03:04:50;;;;;;;6.63;2.10;;;;;;;12.21;100.00;97152.31;5023048;28;20136;-80
2022/10/06 03:07:15;;;;;;;5.63;1.93;;;;;;;12.15;100.00;97155.53;5016546;28;20065;-80
2022/10/06 03:09:41;;;;;;;4.63;2.10;;;;;;;12.09;100.00;97156.13;4998330;28;20157;-80
2022/10/06 03:12:08;;;;;;;5.17;2.00;;;;;;;12.04;100.00;97153.94;4998834;28;20101;-80
2022/10/06 03:14:37;;;;;;;4.20;1.97;;;;;;;12.02;100.00;97161.16;5029998;28;20033;-82
2022/10/06 03:17:04;;;;;;;3.87;2.00;;;;;;;11.99;100.00;97162.25;5030557;28;20040;-81
2022/10/06 03:19:44;;;;;;;6.73;2.37;;;;;;;11.97;100.00;97166.00;5021536;28;20026;-80
2022/10/06 03:22:10;;;;;;;4.43;2.23;;;;;;;11.92;100.00;97176.16;4996342;28;20043;-80
2022/10/06 03:24:41;;;;;;;5.30;2.30;;;;;;;11.88;100.00;97173.00;5026666;28;20057;-80
2022/10/06 03:27:07;;;;;;;4.63;1.93;;;;;;;11.87;100.00;97184.53;5002545;28;20069;-80
2022/10/06 03:29:40;;;;;;;4.10;1.90;;;;;;;11.83;100.00;97177.81;5019857;28;20034;-80
2022/10/06 03:32:05;;;;;;;5.80;2.90;;;;;;;11.80;100.00;97193.91;5024980;28;20067;-81
2022/10/06 03:34:32;;;;;;;4.83;2.13;;;;;;;11.74;100.00;97199.78;5010120;28;20029;-80
2022/10/06 03:37:06;;;;;;;4.83;2.20;;;;;;;11.74;100.00;97202.44;5005664;28;20398;-81
2022/10/06 03:39:33;;;;;;;5.93;2.30;;;;;;;11.74;100.00;97205.06;5003993;28;20025;-80
2022/10/06 03:42:00;;;;;;;3.63;2.20;;;;;;;11.77;100.00;97212.69;5031989;28;20045;-80
2022/10/06 03:44:26;;;;;;;11.87;7.10;;;;;;;11.78;100.00;97216.97;5025321;28;20041;-80
2022/10/06 03:47:11;;;;;;;10.07;6.33;;;;;;;11.79;100.00;97224.72;5016933;28;20037;-80
2022/10/06 03:49:37;;;;;;;6.73;3.67;;;;;;;11.84;100.00;97213.81;5019167;28;20510;-80
2022/10/06 03:52:04;;;;;;;6.33;2.47;;;;;;;11.91;100.00;97221.97;5016546;28;20037;-80
2022/10/06 03:54:33;;;;;;;5.57;2.67;;;;;;;11.93;100.00;97214.72;5006621;28;20056;-80
2022/10/06 03:56:59;;;;;;;7.00;2.60;;;;;;;11.92;100.00;97227.09;4996592;28;20076;-80
2022/10/06 03:59:27;;;;;;;6.03;3.13;;;;;;;11.91;100.00;97222.78;4996278;28;20030;-80
2022/10/06 04:01:54;;;;;;;6.10;2.93;;;;;;;11.90;100.00;97228.19;4996504;28;20038;-80
2022/10/06 04:04:32;;;;;;;8.77;3.20;;;;;;;11.86;100.00;97227.66;5003067;28;20030;-80
2022/10/06 04:07:06;;;;;;;8.87;3.07;;;;;;;11.82;100.00;97236.78;5008144;28;20037;-80
2022/10/06 04:09:31;;;;;;;4.57;2.57;;;;;;;11.84;100.00;97241.91;5017385;28;20038;-80
2022/10/06 04:12:12;;;;;;;4.77;2.63;;;;;;;11.77;100.00;97239.03;5010419;28;20488;-80
2022/10/06 04:14:40;;;;;;;5.80;3.10;;;;;;;11.72;100.00;97249.16;5008771;28;20033;-79
2022/10/06 04:17:08;;;;;;;5.57;3.00;;;;;;;11.72;100.00;97247.34;4995414;28;20083;-80
2022/10/06 04:19:35;;;;;;;6.70;3.33;;;;;;;11.73;100.00;97250.81;4962150;28;1223939;-80
2022/10/06 04:22:01;;;;;;;6.53;2.70;;;;;;;11.71;100.00;97250.13;5000140;28;20038;-80
2022/10/06 04:24:28;;;;;;;8.87;4.60;;;;;;;11.74;100.00;97261.22;5010139;28;20030;-78
2022/10/06 04:27:26;;;;;;;7.80;3.90;;;;;;;11.77;100.00;97262.75;5007504;28;20406;-80
2022/10/06 04:29:44;;;;;;;8.93;3.70;;;;;;;11.74;100.00;97269.13;5020771;28;20129;-81
2022/10/06 04:32:10;;;;;;;6.57;3.47;;;;;;;11.75;100.00;97272.59;5012769;28;20030;-79
2022/10/06 04:34:36;;;;;;;11.30;3.77;;;;;;;11.77;100.00;97279.38;5007454;28;20091;-80
2022/10/06 04:37:02;;;;;;;7.30;3.30;;;;;;;11.80;100.00;97276.47;5006320;28;20038;-82
2022/10/06 04:39:29;;;;;;;7.17;3.50;;;;;;;11.82;100.00;97280.75;5010591;28;20499;-81
2022/10/06 04:41:54;;;;;;;7.40;3.43;;;;;;;11.83;100.00;97279.78;4993557;28;20037;-79
2022/10/06 04:44:23;;;;;;;10.90;3.57;;;;;;;11.86;100.00;97285.63;5012000;28;20085;-80
2022/10/06 04:46:51;;;;;;;4.73;2.80;;;;;;;11.95;100.00;97276.06;5003628;28;20041;-78
2022/10/06 04:49:18;;;;;;;6.57;3.10;;;;;;;12.00;100.00;97284.34;5028741;28;20042;-79
2022/10/06 04:51:44;;;;;;;6.03;3.20;;;;;;;12.08;100.00;97286.31;5014597;28;20079;-83
2022/10/06 04:54:10;;;;;;;6.60;3.43;;;;;;;12.08;100.00;97281.03;5004377;28;20450;-79
2022/10/06 04:56:37;;;;;;;6.53;3.63;;;;;;;12.09;100.00;97286.13;5017080;28;20515;-80
2022/10/06 04:59:04;;;;;;;5.77;3.10;;;;;;;12.06;100.00;97282.97;4993032;28;20034;-80
2022/10/06 05:01:35;;;;;;;8.00;3.03;;;;;;;12.07;100.00;97285.44;5007239;28;20703;-83
2022/10/06 05:04:05;;;;;;;8.43;3.20;;;;;;;12.05;100.00;97291.84;4998273;28;20092;-80
2022/10/06 05:06:38;;;;;;;5.60;3.17;;;;;;;12.06;100.00;97296.97;5006384;28;20149;-80
2022/10/06 05:09:08;;;;;;;6.17;2.83;;;;;;;12.08;100.00;97305.59;4994688;28;20505;-80
2022/10/06 05:11:35;;;;;;;5.30;2.90;;;;;;;12.10;100.00;97308.06;4991781;28;20038;-79
2022/10/06 05:14:03;;;;;;;6.67;2.93;;;;;;;12.13;100.00;97310.41;5017650;28;20044;-80
2022/10/06 05:16:32;;;;;;;9.00;3.80;;;;;;;12.13;100.00;97321.78;5001193;28;20029;-80
2022/10/06 05:18:59;;;;;;;15.63;8.73;;;;;;;12.12;100.00;97325.41;4997840;28;20282;-81
2022/10/06 05:21:33;;;;;;;9.70;5.80;;;;;;;12.23;100.00;97327.88;4999246;28;20040;-80
2022/10/06 05:23:59;;;;;;;7.90;4.47;;;;;;;12.29;100.00;97337.03;5027686;28;20041;-80
2022/10/06 05:26:29;;;;;;;6.17;3.23;;;;;;;12.32;100.00;97333.28;5033581;28;20131;-80
2022/10/06 05:28:56;;;;;;;7.30;3.33;;;;;;;12.42;100.00;97340.19;5004914;28;20190;-82
2022/10/06 05:31:27;;;;;;;5.70;3.13;;;;;;;12.54;100.00;97340.00;5017939;28;20029;-79
2022/10/06 05:33:55;;;;;;;6.90;2.90;;;;;;;12.57;100.00;97329.16;5002274;28;20033;-79
2022/10/06 05:36:28;;;;;;;6.90;3.00;;;;;;;12.64;100.00;97346.94;4997924;28;20104;-79
2022/10/06 05:38:55;;;;;;;6.22;2.65;;;;;;;12.71;100.00;97355.09;5002964;28;20811;-79
2022/10/06 05:41:24;;;;;;;13.27;3.53;;;;;;;12.78;100.00;97355.34;5017984;28;20060;-79
2022/10/06 05:43:50;;;;;;;5.77;2.93;;;;;;;12.83;100.00;97356.56;5034933;28;20068;-79
2022/10/06 05:46:24;;;;;;;6.33;3.00;;;;;;;12.96;100.00;97357.06;4993508;28;20026;-80
2022/10/06 05:49:12;;;;;;;10.00;3.40;;;;;;;13.02;100.00;97358.28;5031201;28;20034;-79
2022/10/06 05:51:43;;;;;;;8.07;3.47;;;;;;;13.03;100.00;97365.22;5002377;28;20091;-79
2022/10/06 05:54:20;;;;;;;8.67;4.10;;;;;;;13.10;100.00;97363.66;5017880;28;20064;-79
2022/10/06 05:56:45;;;;;;;7.37;3.70;;;;;;;13.10;100.00;97368.09;5010707;28;20487;-81
2022/10/06 05:59:11;;;;;;;8.67;3.50;;;;;;;13.05;100.00;97375.66;5021034;28;20118;-79
2022/10/06 06:01:39;;;;;;;8.57;3.30;;;;;;;13.01;100.00;97374.25;5004996;28;20069;-79
2022/10/06 06:04:12;;;;;;;8.80;3.77;;;;;;;13.04;100.00;97369.50;5018428;28;20048;-83
2022/10/06 06:06:47;;;;;;;7.90;3.27;;;;;;;13.03;100.00;97367.03;5001878;28;20029;-80
2022/10/06 06:09:25;;;;;;;6.43;3.00;;;;;;;13.05;100.00;97378.28;5010143;28;20124;-79
2022/10/06 06:11:57;;;;;;;9.60;4.33;;;;;;;12.98;100.00;97373.59;5002611;28;20044;-79
2022/10/06 06:17:17;;;;;;;7.43;3.17;;;;;;;13.04;100.00;97379.25;5018446;28;20439;-79
2022/10/06 06:19:43;;;;;;;6.83;3.47;;;;;;;13.12;100.00;97388.13;5002862;28;20037;-79
2022/10/06 06:22:09;;;;;;;8.87;3.40;;;;;;;13.14;100.00;97380.03;5034377;28;20045;-79
2022/10/06 06:24:37;;;;;;;8.23;3.63;;;;;;;13.10;100.00;97391.88;4997113;28;20125;-79
2022/10/06 06:27:03;;;;;;;8.60;3.97;;;;;;;13.12;100.00;97400.50;5018061;28;20112;-79
2022/10/06 06:29:29;;;;;;;9.80;3.80;;;;;;;13.17;100.00;97398.22;5006530;28;20033;-80
2022/10/06 06:31:54;;;;;;;8.87;3.27;;;;;;;13.19;100.00;97402.41;5004136;28;20398;-79
2022/10/06 06:34:20;;;;;;;7.10;3.67;;;;;;;13.18;100.00;97407.84;5000959;28;20057;-79
2022/10/06 06:36:52;;;;;;;9.43;3.83;;;;;;;13.19;100.00;97405.03;5015342;28;20083;-83
2022/10/06 06:39:18;;;;;;;11.53;4.20;;;;;;;13.17;100.00;97409.63;4988805;28;20030;-83
2022/10/06 06:41:46;;;;;;;7.83;3.80;;;;;;;13.18;100.00;97423.69;5006182;28;20033;-82
2022/10/06 06:44:34;;;;;;;7.97;3.57;;;;;;;13.17;100.00;97422.84;5018374;28;20026;-79
2022/10/06 06:47:04;;;;;;;7.13;4.10;;;;;;;13.25;100.00;97427.44;5028032;28;20037;-79
2022/10/06 06:49:29;;;;;;;9.30;4.23;;;;;;;13.33;100.00;97426.69;5005765;28;20087;-79
2022/10/06 06:52:02;;;;;;;8.17;3.60;;;;;;;13.40;100.00;97433.88;5004987;28;20040;-79
2022/10/06 06:54:28;;;;;;;8.23;3.80;;;;;;;13.45;100.00;97436.09;5021097;28;20037;-79
2022/10/06 06:57:06;;;;;;;7.00;3.60;;;;;;;13.51;100.00;97440.75;5007554;28;20040;-80
2022/10/06 06:59:32;;;;;;;6.43;3.33;;;;;;;13.67;100.00;97437.47;5031032;28;20033;-81
2022/10/06 07:01:59;;;;;;;6.50;3.43;;;;;;;13.80;100.00;97440.59;5004004;28;20072;-79
2022/10/06 07:04:27;;;;;;;9.40;3.90;;;;;;;13.85;100.00;97443.63;4993587;28;20030;-79
2022/10/06 07:06:57;;;;;;;8.33;3.90;;;;;;;13.99;100.00;97454.66;5022283;28;20036;-79
2022/10/06 07:09:24;;;;;;;5.50;3.10;;;;;;;14.07;100.00;97452.91;4989225;28;20058;-78
2022/10/06 07:11:54;;;;;;;5.37;3.20;;;;;;;14.10;100.00;97449.16;5037880;28;20041;-80
2022/10/06 07:14:23;;;;;;;9.60;3.80;;;;;;;14.19;100.00;97445.59;5001681;28;20033;-78
2022/10/06 07:25:25;;;;;;;7.07;3.53;;;;;;;15.07;100.00;97461.47;5015010;28;20454;-78
2022/10/06 07:27:53;;;;;;;8.53;3.57;;;;;;;15.12;100.00;97458.34;5008736;28;20063;-79
2022/10/06 07:30:27;;;;;;;8.88;4.00;;;;;;;15.26;100.00;97463.91;4998519;28;20128;-79
2022/10/06 07:33:00;;;;;;;8.93;3.95;;;;;;;15.29;100.00;97465.38;5012729;28;20124;-77
2022/10/06 07:35:26;;;;;;;7.63;3.80;;;;;;;15.42;100.00;97472.88;5016313;28;20092;-79
2022/10/06 07:37:52;;;;;;;6.93;3.65;;;;;;;15.31;100.00;97479.31;5040962;28;20025;-78
2022/10/06 07:40:20;;;;;;;8.43;3.88;;;;;;;15.22;100.00;97486.38;4994468;28;20029;-79
2022/10/06 07:42:50;;;;;;;7.53;4.25;;;;;;;15.12;100.00;97483.00;5020614;28;20041;-78
2022/10/06 07:45:39;;;;;;;11.77;4.38;;;;;;;15.00;100.00;97492.22;5024120;28;20053;-78
2022/10/06 07:48:22;;;;;;;10.98;3.42;;;;;;;14.91;100.00;97498.44;5012696;28;20037;-78
2022/10/06 07:50:52;;;;;;;9.15;3.53;;;;;;;15.00;100.00;97497.53;5016050;28;20026;-80
2022/10/06 07:53:27;;;;;;;8.57;3.58;;;;;;;14.90;100.00;97496.81;5021237;28;20092;-79
2022/10/06 07:56:05;;;;;;;8.13;3.38;;;;;;;14.87;100.00;97507.69;5001129;28;20030;-79
2022/10/06 07:58:36;;;;;;;6.00;3.05;;;;;;;15.00;100.00;97503.66;5029180;28;20036;-79
2022/10/06 08:01:12;;;;;;;9.30;4.03;;;;;;;14.78;100.00;97510.28;5023550;28;20033;-80
2022/10/06 08:03:40;;;;;;;6.25;3.38;;;;;;;14.83;100.00;97510.66;5000731;28;20038;-81
2022/10/06 08:06:11;;;;;;;11.85;4.18;;;;;;;14.85;100.00;97511.34;4997331;28;20067;-82
2022/10/06 08:08:37;;;;;;;9.30;3.92;;;;;;;14.98;100.00;97510.91;5007020;28;20117;-80
2022/10/06 08:11:04;;;;;;;6.80;3.35;;;;;;;14.76;100.00;97512.25;5012850;28;20454;-79
2022/10/06 08:13:33;;;;;;;8.52;3.45;;;;;;;14.94;100.00;97516.69;5015604;28;20045;-79
2022/10/06 08:16:07;;;;;;;9.02;4.03;;;;;;;14.82;100.00;97514.31;5009250;28;20037;-79
2022/10/06 08:18:33;;;;;;;9.52;3.70;;;;;;;14.73;100.00;97524.97;4993634;28;20037;-79
2022/10/06 08:20:59;;;;;;;9.90;3.80;;;;;;;14.66;100.00;97522.13;5043726;28;20037;-80
2022/10/06 08:23:25;;;;;;;10.55;4.15;;;;;;;14.78;100.00;97520.88;4997952;28;20124;-80
2022/10/06 08:25:53;;;;;;;12.15;4.95;;;;;;;14.70;100.00;97528.75;5006706;28;20040;-79
2022/10/06 08:28:21;;;;;;;7.60;4.43;;;;;;;14.63;100.00;97532.19;4998745;28;20562;-79
2022/10/06 08:30:50;;;;;;;8.38;4.40;;;;;;;14.77;100.00;97535.09;4999765;28;20030;-84
2022/10/06 08:33:23;;;;;;;7.53;4.40;;;;;;;14.87;100.00;97537.66;5030252;28;20033;-79
2022/10/06 08:35:50;;;;;;;9.40;4.72;;;;;;;14.86;100.00;97541.31;5019750;28;20044;-83
2022/10/06 08:38:16;;;;;;;8.65;4.88;;;;;;;15.14;100.00;97544.63;4995691;28;20037;-85
2022/10/06 08:40:44;;;;;;;10.57;4.18;;;;;;;15.40;100.00;97543.81;5019531;28;20064;-79
2022/10/06 08:43:18;;;;;;;10.23;4.90;;;;;;;15.24;100.00;97540.06;4996224;28;20030;-81
2022/10/06 08:45:46;;;;;;;9.60;4.65;;;;;;;15.48;100.00;97549.13;5006749;28;20034;-80
2022/10/06 08:48:27;;;;;;;9.77;4.55;;;;;;;15.49;100.00;97538.41;4995783;28;20474;-81
2022/10/06 08:50:59;;;;;;;8.85;4.32;;;;;;;15.46;100.00;97554.63;5031607;28;20037;-82
2022/10/06 08:53:37;;;;;;;12.20;4.28;;;;;;;15.59;100.00;97546.19;5022702;28;20453;-79
2022/10/06 08:56:16;;;;;;;16.50;4.63;;;;;;;15.70;100.00;97551.28;5005361;28;20034;-80
2022/10/06 08:58:51;;;;;;;9.48;3.88;;;;;;;15.61;100.00;97548.72;5014872;28;20033;-82
2022/10/06 09:01:26;;;;;;;7.70;3.78;;;;;;;15.51;100.00;97552.31;4996993;28;20029;-79
2022/10/06 09:03:57;;;;;;;9.45;4.20;;;;;;;15.72;100.00;97561.72;5014458;28;20044;-83
2022/10/06 09:06:30;;;;;;;8.82;3.65;;;;;;;15.89;100.00;97555.47;5009322;28;20075;-79
2022/10/06 09:09:17;;;;;;;7.88;3.70;;;;;;;15.75;100.00;97562.22;5006029;28;20034;-79
2022/10/06 09:12:02;;;;;;;8.90;3.10;;;;;;;15.93;100.00;97556.03;5006048;28;20080;-83
2022/10/06 09:14:38;;;;;;;7.38;3.28;;;;;;;15.84;100.00;97555.16;5019423;28;20045;-84
2022/10/06 09:17:26;;;;;;;9.05;4.00;;;;;;;15.87;100.00;97564.63;5000449;28;20033;-80
2022/10/06 09:20:19;;;;;;;6.88;3.55;;;;;;;15.70;100.00;97572.50;4994414;28;20058;-80
2022/10/06 09:22:47;;;;;;;9.88;3.72;;;;;;;15.93;100.00;97570.09;5042243;28;20578;-82
2022/10/06 09:25:18;;;;;;;12.18;3.63;;;;;;;15.86;100.00;97570.88;5017136;28;20167;-80
2022/10/06 09:27:50;;;;;;;6.22;3.42;;;;;;;15.78;100.00;97572.53;5013481;28;20449;-79
2022/10/06 09:30:16;;;;;;;7.65;2.67;;;;;;;16.17;100.00;97561.41;5010409;28;20038;-81
2022/10/06 09:32:52;;;;;;;10.63;2.83;;;;;;;16.31;100.00;97561.75;5002037;28;20037;-79
2022/10/06 09:35:23;;;;;;;8.63;2.78;;;;;;;16.48;100.00;97558.97;4989107;28;20029;-79
2022/10/06 09:38:03;;;;;;;9.98;2.80;;;;;;;16.35;100.00;97561.25;5002162;28;20474;-80
2022/10/06 09:40:53;;;;;;;6.40;2.28;;;;;;;16.35;100.00;97560.44;4999915;28;20033;-79
2022/10/06 09:43:26;;;;;;;4.75;2.20;;;;;;;16.52;100.00;97564.78;5002460;28;20033;-80
2022/10/06 09:46:12;;;;;;;7.30;2.78;;;;;;;16.49;100.00;97565.09;5019891;28;20041;-79
2022/10/06 09:48:38;;;;;;;5.28;2.03;;;;;;;16.54;100.00;97562.78;5008305;28;20514;-79
2022/10/06 09:51:17;;;;;;;4.75;2.30;;;;;;;16.55;100.00;97569.75;5010904;28;20036;-79
2022/10/06 09:54:14;;;;;;;7.78;2.25;;;;;;;16.64;100.00;97566.13;5001956;28;20510;-79
2022/10/06 09:56:44;;;;;;;4.47;1.63;;;;;;;16.57;100.00;97569.59;5010556;28;20041;-79
2022/10/06 09:59:33;;;;;;;4.90;2.05;;;;;;;16.61;100.00;97569.09;5018552;28;20099;-79
2022/10/06 10:02:00;;;;;;;4.03;1.52;;;;;;;16.71;100.00;97572.44;5005519;28;20037;-82
2022/10/06 10:04:31;;;;;;;3.42;1.45;;;;;;;16.72;100.00;97570.59;5013806;28;20403;-79
2022/10/06 10:07:24;;;;;;;6.47;1.80;;;;;;;17.00;100.00;97568.50;5013566;28;20120;-79
2022/10/06 10:09:52;;;;;;;3.90;1.67;;;;;;;17.02;100.00;97566.47;5018236;28;20034;-84
2022/10/06 10:12:28;;;;;;;13.02;2.53;;;;;;;17.05;100.00;97566.16;5004748;28;20061;-80
2022/10/06 10:14:57;;;;;;;5.78;1.80;;;;;;;17.07;100.00;97564.16;5021900;28;20061;-80
2022/10/06 10:17:52;;;;;;;4.15;1.83;;;;;;;17.19;100.00;97572.63;5023273;28;20498;-79
2022/10/06 10:20:26;;;;;;;8.27;1.98;;;;;;;17.12;100.00;97563.66;5006269;28;20467;-80
2022/10/06 10:23:22;;;;;;;6.63;1.83;;;;;;;17.39;100.00;97565.09;5018100;28;20037;-79
2022/10/06 10:26:17;;;;;;;7.03;2.30;;;;;;;17.01;100.00;97571.97;5017255;28;20109;-80
2022/10/06 10:29:05;;;;;;;7.00;1.95;;;;;;;16.72;100.00;97576.75;5022076;28;20033;-79
2022/10/06 10:31:49;;;;;;;5.82;1.88;;;;;;;16.48;100.00;97566.94;5006967;28;20790;-79
2022/10/06 10:34:54;;;;;;;6.18;2.08;;;;;;;16.51;100.00;97576.41;5002649;28;20076;-79
2022/10/06 10:37:35;;;;;;;5.22;1.88;;;;;;;16.66;100.00;97576.56;4999134;28;20958;-79
2022/10/06 10:40:04;;;;;;;5.40;1.90;;;;;;;16.62;100.00;97577.91;5032913;28;20133;-79
2022/10/06 10:42:43;;;;;;;9.45;2.08;;;;;;;16.79;100.00;97579.59;4990358;28;20034;-80
2022/10/06 10:45:17;;;;;;;6.70;3.17;;;;;;;16.75;100.00;97574.78;5002012;28;20037;-79
2022/10/06 10:47:44;;;;;;;5.68;2.42;;;;;;;16.65;100.00;97582.88;5023120;28;20103;-79
2022/10/06 10:50:30;;;;;;;3.85;1.48;;;;;;;16.95;100.00;97579.59;5033814;28;20453;-80
2022/10/06 10:53:25;;;;;;;5.22;2.35;;;;;;;16.85;100.00;97578.13;4998443;28;20045;-80
2022/10/06 10:55:52;;;;;;;4.82;2.55;;;;;;;16.87;100.00;97584.94;5020038;28;20042;-80
2022/10/06 10:58:35;;;;;;;5.75;2.38;;;;;;;17.09;100.00;97571.97;5007683;28;20041;-79
2022/10/06 11:01:06;;;;;;;4.85;2.10;;;;;;;17.25;100.00;97571.13;5024318;28;20029;-79
2022/10/06 11:03:32;;;;;;;5.78;3.10;;;;;;;17.61;100.00;97564.41;5005568;28;20034;-79
2022/10/06 11:06:26;;;;;;;8.00;2.00;;;;;;;17.71;100.00;97563.38;5013889;28;20593;-79
2022/10/06 11:09:05;;;;;;;7.07;1.90;;;;;;;17.99;100.00;97563.78;5010887;28;20052;-80
2022/10/06 11:11:41;;;;;;;6.30;1.70;;;;;;;18.00;100.00;97563.59;5002238;28;20551;-79
2022/10/06 11:14:21;;;;;;;5.00;1.38;;;;;;;18.13;100.00;97563.88;5022793;28;20064;-79
2022/10/06 11:17:10;;;;;;;5.10;1.50;;;;;;;18.34;100.00;97562.41;5012606;28;20092;-79
2022/10/06 11:19:41;;;;;;;8.73;1.33;;;;;;;18.52;100.00;97563.00;5013523;28;20410;-82
2022/10/06 11:22:19;;;;;;;3.75;1.10;;;;;;;18.60;100.00;97560.25;5005441;28;20037;-79
2022/10/06 11:24:51;;;;;;;5.65;1.60;;;;;;;18.30;100.00;97569.09;5003906;28;20041;-79
2022/10/06 11:27:41;;;;;;;4.57;1.25;;;;;;;18.79;100.00;97560.84;4996057;28;20049;-79
2022/10/06 11:30:17;;;;;;;4.32;1.92;;;;;;;18.48;100.00;97574.19;5055372;28;20033;-79
2022/10/06 11:33:10;;;;;;;8.45;3.17;;;;;;;18.41;100.00;97573.19;5020102;28;20038;-80
2022/10/06 11:35:40;;;;;;;7.43;2.53;;;;;;;18.12;100.00;97570.22;4998921;28;20069;-79
2022/10/06 11:38:28;;;;;;;2.80;1.00;;;;;;;18.22;100.00;97563.84;5022324;28;20041;-79
2022/10/06 11:41:21;;;;;;;5.57;1.55;;;;;;;17.71;100.00;97569.53;5008274;28;20037;-83
2022/10/06 11:44:13;;;;;;;4.25;1.27;;;;;;;18.01;100.00;97570.59;5024572;28;20041;-79
2022/10/06 11:46:48;;;;;;;2.65;1.08;;;;;;;17.79;100.00;97566.03;5010515;28;20048;-79
2022/10/06 11:49:29;;;;;;;5.57;1.35;;;;;;;18.22;100.00;97563.84;5008758;28;20033;-79
2022/10/06 11:52:06;;;;;;;2.45;1.05;;;;;;;17.73;100.00;97558.69;5017268;28;20065;-81
2022/10/06 11:54:52;;;;;;;5.70;1.42;;;;;;;18.25;100.00;97558.16;5017083;28;20033;-81
2022/10/06 11:57:20;;;;;;;6.20;1.70;;;;;;;18.75;100.00;97554.22;5000458;28;20063;-79